Time;durP1;ratioP1;P1;durP2;ratioP2;P2;SDS_P1;SDS_P2;PMS_P1;PMS_P2;Temp;Humidity;BMP_temperature;BMP_pressure;BME280_temperature;BME280_humidity;BME280_pressure;Samples;Min_cycle;Max_cycle;Signal;HPM_P1;HPM_P2
2024/01/31 00:01:39;;;;;;;8.65;3.08;;;;;;;4.94;100.00;103206.72;5067506;28;20365;-54
2024/01/31 00:04:08;;;;;;;9.13;2.97;;;;;;;4.90;100.00;103201.50;5069918;28;20044;-53
2024/01/31 00:06:36;;;;;;;9.60;2.70;;;;;;;4.88;100.00;103205.88;5071659;28;20064;-54
2024/01/31 00:09:05;;;;;;;12.73;2.95;;;;;;;4.88;100.00;103212.78;5070029;28;20415;-55
2024/01/31 00:11:34;;;;;;;9.02;2.97;;;;;;;4.88;100.00;103203.25;5070525;28;20052;-54
2024/01/31 00:14:06;;;;;;;9.70;3.28;;;;;;;4.85;100.00;103208.50;5067250;28;20495;-54
2024/01/31 00:16:34;;;;;;;14.15;3.40;;;;;;;4.84;100.00;103213.69;5070028;28;20056;-54
2024/01/31 00:19:03;;;;;;;10.00;2.78;;;;;;;4.82;100.00;103208.47;5069063;28;20119;-53
2024/01/31 00:21:31;;;;;;;10.57;2.90;;;;;;;4.84;100.00;103208.47;5067443;28;20051;-54
2024/01/31 00:24:02;;;;;;;10.95;3.00;;;;;;;4.80;100.00;103214.56;5067051;28;20060;-53
2024/01/31 00:26:32;;;;;;;9.20;2.67;;;;;;;4.79;100.00;103224.13;5066412;28;20053;-53
2024/01/31 00:29:00;;;;;;;8.52;2.80;;;;;;;4.80;100.00;103231.09;5066309;28;20052;-52
2024/01/31 00:31:28;;;;;;;11.10;3.20;;;;;;;4.77;100.00;103228.47;5070446;28;20040;-54
2024/01/31 00:33:59;;;;;;;12.48;3.00;;;;;;;4.76;100.00;103231.97;5071851;28;20044;-54
2024/01/31 00:36:28;;;;;;;10.40;2.95;;;;;;;4.78;100.00;103242.41;5075230;28;20124;-53
2024/01/31 00:38:56;;;;;;;10.25;3.10;;;;;;;4.72;100.00;103243.28;5074079;28;20044;-53
2024/01/31 00:41:24;;;;;;;10.07;2.83;;;;;;;4.71;100.00;103250.22;5074145;28;20040;-54
2024/01/31 00:43:54;;;;;;;8.68;2.75;;;;;;;4.68;100.00;103249.38;5073940;28;20044;-54
2024/01/31 00:46:22;;;;;;;11.98;3.20;;;;;;;4.71;100.00;103251.97;5070425;28;20071;-52
2024/01/31 00:48:50;;;;;;;6.35;2.30;;;;;;;4.70;100.00;103250.22;5070413;28;20678;-55
2024/01/31 00:51:19;;;;;;;10.07;3.22;;;;;;;4.69;100.00;103258.91;5071611;28;20396;-54
2024/01/31 00:53:47;;;;;;;7.65;2.60;;;;;;;4.69;100.00;103253.69;5070997;28;20036;-55
2024/01/31 00:56:18;;;;;;;18.55;3.53;;;;;;;4.73;100.00;103258.03;5074846;28;20044;-54
2024/01/31 00:58:46;;;;;;;9.40;2.75;;;;;;;4.72;100.00;103261.53;5074835;28;20094;-53
2024/01/31 01:01:15;;;;;;;9.75;2.88;;;;;;;4.71;100.00;103260.66;5074759;28;20098;-54
2024/01/31 01:03:44;;;;;;;6.63;2.75;;;;;;;4.73;100.00;103263.25;5074716;28;20052;-54
2024/01/31 01:06:12;;;;;;;8.73;2.90;;;;;;;4.72;100.00;103254.56;5073206;28;20044;-54
2024/01/31 01:08:40;;;;;;;9.75;2.90;;;;;;;4.75;100.00;103264.13;5071702;28;20102;-54
2024/01/31 01:11:09;;;;;;;8.05;2.50;;;;;;;4.68;100.00;103272.84;5066799;28;20117;-55
2024/01/31 01:13:37;;;;;;;8.60;2.47;;;;;;;4.69;100.00;103274.56;5075261;28;20484;-54
2024/01/31 01:16:05;;;;;;;10.07;2.50;;;;;;;4.67;100.00;103271.09;5073805;28;20060;-54
2024/01/31 01:18:35;;;;;;;11.45;2.75;;;;;;;4.69;100.00;103279.75;5071046;28;20091;-54
2024/01/31 01:21:04;;;;;;;7.63;2.00;;;;;;;4.69;100.00;103279.75;5073974;28;20431;-54
2024/01/31 01:23:32;;;;;;;9.15;2.20;;;;;;;4.71;100.00;103280.66;5074024;28;20033;-54
2024/01/31 01:26:01;;;;;;;7.38;1.92;;;;;;;4.71;100.00;103276.28;5071080;28;20044;-54
2024/01/31 01:28:29;;;;;;;7.65;2.05;;;;;;;4.68;100.00;103280.66;5071147;28;20075;-55
2024/01/31 01:30:57;;;;;;;6.03;2.00;;;;;;;4.71;100.00;103275.44;5072887;28;20483;-54
2024/01/31 01:33:25;;;;;;;7.10;2.00;;;;;;;4.73;100.00;103265.84;5070286;28;20403;-53
2024/01/31 01:35:55;;;;;;;7.00;1.75;;;;;;;4.74;100.00;103270.19;5068992;28;20052;-54
2024/01/31 01:38:23;;;;;;;7.30;1.67;;;;;;;4.71;100.00;103265.00;5071087;28;20048;-55
2024/01/31 01:40:51;;;;;;;5.95;2.05;;;;;;;4.68;100.00;103272.84;5067336;28;20506;-54
2024/01/31 01:43:20;;;;;;;7.07;2.38;;;;;;;4.71;100.00;103275.44;5071174;28;20040;-55
2024/01/31 01:45:49;;;;;;;8.55;2.30;;;;;;;4.70;100.00;103271.06;5069620;28;20110;-54
2024/01/31 01:48:17;;;;;;;8.30;2.00;;;;;;;4.70;100.00;103260.66;5072291;28;20419;-51
2024/01/31 01:50:46;;;;;;;7.13;2.03;;;;;;;4.68;100.00;103263.25;5071848;28;20056;-53
2024/01/31 01:53:15;;;;;;;11.30;2.60;;;;;;;4.70;100.00;103263.25;5070672;28;20479;-54
2024/01/31 01:55:44;;;;;;;8.75;2.58;;;;;;;4.71;100.00;103257.19;5070836;28;20140;-54
2024/01/31 01:58:13;;;;;;;7.88;2.25;;;;;;;4.69;100.00;103256.31;5071723;28;20094;-53
2024/01/31 02:00:45;;;;;;;9.55;2.38;;;;;;;4.71;100.00;103259.78;5069074;28;20499;-54
2024/01/31 02:03:15;;;;;;;7.32;2.17;;;;;;;4.70;100.00;103265.88;5068846;28;20307;-53
2024/01/31 02:05:46;;;;;;;7.72;2.45;;;;;;;4.69;100.00;103262.41;5070989;28;20123;-53
2024/01/31 02:08:17;;;;;;;9.40;2.30;;;;;;;4.70;100.00;103256.31;5071079;28;20475;-53
2024/01/31 02:10:45;;;;;;;8.55;2.97;;;;;;;4.70;100.00;103258.94;5070640;28;20067;-54
2024/01/31 02:13:13;;;;;;;7.90;1.98;;;;;;;4.69;100.00;103265.00;5070277;28;20036;-52
2024/01/31 02:15:51;;;;;;;7.50;2.20;;;;;;;4.67;100.00;103260.66;5070626;28;20052;-53
2024/01/31 02:18:19;;;;;;;7.85;2.08;;;;;;;4.67;100.00;103260.66;5069202;28;20045;-53
2024/01/31 02:20:50;;;;;;;8.63;2.28;;;;;;;4.67;100.00;103255.44;5072585;28;20411;-54
2024/01/31 02:23:23;;;;;;;7.20;2.38;;;;;;;4.67;100.00;103255.44;5070981;28;20093;-53
2024/01/31 02:25:51;;;;;;;7.78;2.20;;;;;;;4.64;100.00;103252.84;5068727;28;20141;-53
2024/01/31 02:28:19;;;;;;;8.50;2.28;;;;;;;4.62;100.00;103258.09;5072506;28;20051;-52
2024/01/31 02:30:48;;;;;;;5.25;1.88;;;;;;;4.62;100.00;103252.88;5067774;28;20068;-53
2024/01/31 02:33:16;;;;;;;6.25;2.03;;;;;;;4.62;100.00;103259.78;5070377;28;20488;-53
2024/01/31 02:35:44;;;;;;;8.25;2.53;;;;;;;4.63;100.00;103258.94;5069950;28;20369;-52
2024/01/31 02:38:12;;;;;;;6.13;2.10;;;;;;;4.62;100.00;103265.91;5069927;28;20044;-53
2024/01/31 02:40:42;;;;;;;10.73;2.28;;;;;;;4.62;100.00;103265.00;5066370;28;20119;-53
2024/01/31 02:43:10;;;;;;;6.95;1.80;;;;;;;4.62;100.00;103254.59;5069732;28;20040;-54
2024/01/31 02:45:38;;;;;;;5.30;2.13;;;;;;;4.63;100.00;103257.19;5071918;28;20159;-54
2024/01/31 02:48:08;;;;;;;7.22;1.70;;;;;;;4.64;100.00;103258.94;5068828;28;20076;-54
2024/01/31 02:50:38;;;;;;;7.93;2.13;;;;;;;4.65;100.00;103257.19;5069226;28;20049;-53
2024/01/31 02:53:06;;;;;;;4.15;1.73;;;;;;;4.65;100.00;103257.19;5069505;28;20500;-54
2024/01/31 02:55:34;;;;;;;7.35;1.77;;;;;;;4.63;100.00;103254.56;5068883;28;20056;-54
2024/01/31 02:58:04;;;;;;;7.03;2.20;;;;;;;4.63;100.00;103254.56;5068859;28;20056;-54
2024/01/31 03:00:32;;;;;;;4.47;1.75;;;;;;;4.61;100.00;103258.06;5067271;28;20539;-54
2024/01/31 03:03:00;;;;;;;6.35;1.92;;;;;;;4.60;100.00;103253.72;5068879;28;20554;-46
2024/01/31 03:05:28;;;;;;;8.82;2.42;;;;;;;4.60;100.00;103251.13;5068791;28;21495;-44
2024/01/31 03:07:57;;;;;;;8.07;2.00;;;;;;;4.60;100.00;103249.38;5068381;28;20028;-46
2024/01/31 03:10:25;;;;;;;8.05;1.98;;;;;;;4.58;100.00;103248.50;5066911;28;20040;-46
2024/01/31 03:12:53;;;;;;;9.40;2.10;;;;;;;4.58;100.00;103245.88;5067501;28;20098;-47
2024/01/31 03:15:23;;;;;;;6.60;1.90;;;;;;;4.55;100.00;103241.59;5069237;28;20495;-45
2024/01/31 03:17:51;;;;;;;8.10;2.28;;;;;;;4.54;100.00;103225.91;5068234;28;20415;-45
2024/01/31 03:20:19;;;;;;;7.15;2.03;;;;;;;4.55;100.00;103227.66;5070296;28;20056;-47
2024/01/31 03:22:47;;;;;;;7.68;1.95;;;;;;;4.56;100.00;103216.38;5071506;28;20037;-49
2024/01/31 03:25:15;;;;;;;11.07;2.25;;;;;;;4.53;100.00;103211.19;5071472;28;20036;-48
2024/01/31 03:27:43;;;;;;;9.30;2.40;;;;;;;4.52;100.00;103214.63;5072540;28;20044;-49
2024/01/31 03:30:12;;;;;;;6.22;2.15;;;;;;;4.50;100.00;103208.56;5071957;28;20048;-49
2024/01/31 03:32:42;;;;;;;7.28;2.08;;;;;;;4.53;100.00;103206.81;5071481;28;20044;-49
2024/01/31 03:35:10;;;;;;;7.35;2.42;;;;;;;4.51;100.00;103216.41;5070354;28;20036;-50
2024/01/31 03:37:38;;;;;;;9.15;2.08;;;;;;;4.49;100.00;103223.34;5070921;28;20043;-51
2024/01/31 03:40:08;;;;;;;10.82;2.55;;;;;;;4.49;100.00;103212.06;5071299;28;21489;-46
2024/01/31 03:42:37;;;;;;;8.18;2.22;;;;;;;4.47;100.00;103212.06;5071030;28;20530;-46
2024/01/31 03:45:06;;;;;;;6.80;2.30;;;;;;;4.48;100.00;103218.97;5068001;28;20051;-46
2024/01/31 03:47:35;;;;;;;9.13;2.17;;;;;;;4.48;100.00;103226.81;5067189;28;20404;-46
2024/01/31 03:50:05;;;;;;;7.03;2.45;;;;;;;4.47;100.00;103213.78;5070281;28;20118;-47
2024/01/31 03:52:35;;;;;;;6.47;2.50;;;;;;;4.47;100.00;103212.06;5067621;28;20597;-45
2024/01/31 03:55:05;;;;;;;8.13;2.40;;;;;;;4.45;100.00;103202.50;5067254;28;20417;-45
2024/01/31 03:57:37;;;;;;;6.38;2.25;;;;;;;4.42;100.00;103199.88;5071551;28;20079;-46
2024/01/31 04:00:08;;;;;;;5.18;2.25;;;;;;;4.42;100.00;103197.28;5072595;28;20384;-46
2024/01/31 04:02:38;;;;;;;7.20;2.13;;;;;;;4.43;100.00;103209.44;5066857;28;20048;-46
2024/01/31 04:05:11;;;;;;;6.53;2.65;;;;;;;4.43;100.00;103210.31;5072072;28;20048;-46
2024/01/31 04:07:40;;;;;;;10.18;2.70;;;;;;;4.44;100.00;103204.22;5071643;28;20048;-44
2024/01/31 04:10:14;;;;;;;11.23;2.75;;;;;;;4.42;100.00;103197.28;5071872;28;20059;-45
2024/01/31 04:12:45;;;;;;;7.60;2.80;;;;;;;4.40;100.00;103192.06;5072510;28;20052;-45
2024/01/31 04:15:13;;;;;;;7.00;2.30;;;;;;;4.40;100.00;103199.88;5071862;28;20494;-45
2024/01/31 04:17:41;;;;;;;9.00;2.63;;;;;;;4.39;100.00;103191.22;5072189;28;20139;-44
2024/01/31 04:20:12;;;;;;;9.73;2.80;;;;;;;4.41;100.00;103188.59;5072786;28;20040;-45
2024/01/31 04:22:41;;;;;;;9.52;2.47;;;;;;;4.41;100.00;103191.22;5072347;28;20040;-45
2024/01/31 04:25:09;;;;;;;6.18;2.30;;;;;;;4.40;100.00;103189.47;5072304;28;20073;-46
2024/01/31 04:27:37;;;;;;;10.38;2.40;;;;;;;4.39;100.00;103192.94;5072250;28;20049;-46
2024/01/31 04:30:11;;;;;;;9.88;2.33;;;;;;;4.38;100.00;103188.63;5072266;28;20041;-44
2024/01/31 04:32:39;;;;;;;7.18;2.65;;;;;;;4.35;100.00;103186.88;5072584;28;20037;-45
2024/01/31 04:35:09;;;;;;;6.88;1.90;;;;;;;4.36;100.00;103191.22;5072372;28;20040;-47
2024/01/31 04:37:39;;;;;;;5.47;2.40;;;;;;;4.37;100.00;103186.88;5069533;28;20052;-47
2024/01/31 04:40:09;;;;;;;8.60;2.58;;;;;;;4.36;100.00;103196.44;5069309;28;20053;-49
2024/01/31 04:42:38;;;;;;;5.97;2.33;;;;;;;4.37;100.00;103194.69;5073335;28;20091;-49
2024/01/31 04:45:08;;;;;;;9.52;2.40;;;;;;;4.37;100.00;103194.69;5071896;28;20079;-50
2024/01/31 04:47:36;;;;;;;9.77;2.40;;;;;;;4.35;100.00;103197.31;5071655;28;20063;-50
2024/01/31 04:50:05;;;;;;;8.27;2.30;;;;;;;4.36;100.00;103190.34;5072405;28;20060;-44
2024/01/31 04:52:37;;;;;;;6.35;2.00;;;;;;;4.35;100.00;103191.19;5072255;28;20055;-45
2024/01/31 04:55:06;;;;;;;5.75;2.50;;;;;;;4.35;100.00;103189.47;5072130;28;20048;-44
2024/01/31 04:57:34;;;;;;;6.10;2.00;;;;;;;4.36;100.00;103179.91;5069725;28;20052;-47
2024/01/31 05:00:04;;;;;;;5.55;2.00;;;;;;;4.36;100.00;103188.63;5066459;28;20123;-47
2024/01/31 05:02:32;;;;;;;7.63;1.90;;;;;;;4.34;100.00;103184.28;5069556;28;20082;-45
2024/01/31 05:05:01;;;;;;;7.53;2.30;;;;;;;4.34;100.00;103190.34;5070913;28;20036;-46
2024/01/31 05:07:29;;;;;;;7.78;1.77;;;;;;;4.34;100.00;103190.34;5070703;28;20036;-47
2024/01/31 05:09:59;;;;;;;8.02;2.20;;;;;;;4.33;100.00;103187.75;5070745;28;20045;-45
2024/01/31 05:12:27;;;;;;;5.32;2.00;;;;;;;4.33;100.00;103185.13;5070893;28;20044;-48
2024/01/31 05:14:55;;;;;;;8.88;2.00;;;;;;;4.32;100.00;103183.41;5071483;28;20059;-46
2024/01/31 05:17:23;;;;;;;8.25;2.15;;;;;;;4.30;100.00;103186.00;5074344;28;20054;-45
2024/01/31 05:19:52;;;;;;;6.75;1.95;;;;;;;4.32;100.00;103186.00;5074386;28;20060;-45
2024/01/31 05:22:20;;;;;;;6.40;1.98;;;;;;;4.33;100.00;103192.97;5074339;28;20067;-46
2024/01/31 05:24:48;;;;;;;6.93;2.08;;;;;;;4.31;100.00;103190.34;5072971;28;20037;-46
2024/01/31 05:27:17;;;;;;;6.50;1.73;;;;;;;4.32;100.00;103192.09;5074599;28;20404;-47
2024/01/31 05:29:46;;;;;;;8.02;2.70;;;;;;;4.32;100.00;103196.44;5073991;28;20385;-48
2024/01/31 05:32:15;;;;;;;5.20;1.75;;;;;;;4.32;100.00;103192.09;5074082;28;20036;-46
2024/01/31 05:34:44;;;;;;;6.57;1.67;;;;;;;4.33;100.00;103200.78;5071494;28;20537;-47
2024/01/31 05:37:13;;;;;;;6.95;2.15;;;;;;;4.33;100.00;103198.16;5068198;28;20045;-46
2024/01/31 05:39:41;;;;;;;5.85;1.90;;;;;;;4.32;100.00;103207.75;5074084;28;20048;-45
2024/01/31 05:42:09;;;;;;;7.78;2.20;;;;;;;4.34;100.00;103202.53;5074351;28;20451;-45
2024/01/31 05:44:39;;;;;;;4.50;1.85;;;;;;;4.32;100.00;103196.44;5074049;28;20045;-45
2024/01/31 05:47:07;;;;;;;6.82;2.13;;;;;;;4.32;100.00;103193.81;5073903;28;20403;-45
2024/01/31 05:49:35;;;;;;;9.70;2.15;;;;;;;4.33;100.00;103193.81;5073878;28;20068;-47
2024/01/31 05:52:03;;;;;;;9.50;2.03;;;;;;;4.36;100.00;103187.72;5073332;28;20051;-45
2024/01/31 05:54:32;;;;;;;6.43;1.85;;;;;;;4.33;100.00;103183.38;5069309;28;20044;-46
2024/01/31 05:57:00;;;;;;;8.32;2.20;;;;;;;4.32;100.00;103181.69;5073978;28;20393;-45
2024/01/31 05:59:28;;;;;;;6.25;2.17;;;;;;;4.34;100.00;103179.06;5072609;28;20054;-46
2024/01/31 06:01:58;;;;;;;9.20;2.00;;;;;;;4.32;100.00;103180.78;5073047;28;20037;-46
2024/01/31 06:04:26;;;;;;;7.47;2.28;;;;;;;4.33;100.00;103187.75;5071128;28;20040;-45
2024/01/31 06:06:55;;;;;;;6.97;2.00;;;;;;;4.33;100.00;103182.53;5072983;28;20032;-46
2024/01/31 06:09:26;;;;;;;8.55;2.38;;;;;;;4.31;100.00;103184.25;5073789;28;20041;-46
2024/01/31 06:11:54;;;;;;;7.35;2.50;;;;;;;4.32;100.00;103186.91;5072825;28;20046;-53
2024/01/31 06:14:22;;;;;;;5.88;2.05;;;;;;;4.27;100.00;103177.31;5068683;28;20048;-54
2024/01/31 06:16:50;;;;;;;7.50;2.20;;;;;;;4.27;100.00;103169.50;5067742;28;20040;-47
2024/01/31 06:19:20;;;;;;;9.73;2.20;;;;;;;4.19;100.00;103167.78;5070474;28;20048;-54
2024/01/31 06:21:49;;;;;;;7.25;1.95;;;;;;;4.20;100.00;103161.72;5070070;28;20720;-45
2024/01/31 06:24:17;;;;;;;5.55;1.80;;;;;;;4.26;100.00;103157.38;5068995;28;20433;-45
2024/01/31 06:26:46;;;;;;;9.10;2.55;;;;;;;4.22;100.00;103152.16;5069304;28;20052;-46
2024/01/31 06:29:18;;;;;;;5.68;2.50;;;;;;;4.26;100.00;103154.75;5073063;28;20048;-47
2024/01/31 06:31:47;;;;;;;6.70;2.20;;;;;;;4.26;100.00;103155.63;5073246;28;20543;-46
2024/01/31 06:34:16;;;;;;;9.77;2.00;;;;;;;4.27;100.00;103152.16;5075099;28;20045;-46
2024/01/31 06:36:46;;;;;;;5.45;2.28;;;;;;;4.23;100.00;103148.69;5072905;28;20037;-46
2024/01/31 06:39:14;;;;;;;5.85;2.10;;;;;;;4.27;100.00;103146.06;5072564;28;20368;-46
2024/01/31 06:41:45;;;;;;;6.88;2.30;;;;;;;4.27;100.00;103136.53;5071875;28;20044;-45
2024/01/31 06:44:13;;;;;;;5.88;2.10;;;;;;;4.27;100.00;103138.25;5072687;28;20461;-46
2024/01/31 06:46:46;;;;;;;5.10;2.35;;;;;;;4.24;100.00;103131.34;5069187;28;20071;-46
2024/01/31 06:49:14;;;;;;;6.15;2.53;;;;;;;4.25;100.00;103137.41;5067295;28;20109;-46
2024/01/31 06:51:43;;;;;;;5.82;2.63;;;;;;;4.28;100.00;103137.38;5069679;28;20135;-47
2024/01/31 06:54:14;;;;;;;7.18;2.67;;;;;;;4.28;100.00;103151.28;5070742;28;20047;-45
2024/01/31 06:56:42;;;;;;;6.00;2.83;;;;;;;4.31;100.00;103153.00;5073009;28;20049;-46
2024/01/31 06:59:10;;;;;;;4.88;2.45;;;;;;;4.32;100.00;103160.84;5073615;28;20044;-46
2024/01/31 07:01:38;;;;;;;7.28;2.60;;;;;;;4.33;100.00;103165.16;5069497;28;20041;-49
2024/01/31 07:04:09;;;;;;;5.97;2.50;;;;;;;4.32;100.00;103179.06;5070657;28;20048;-45
2024/01/31 07:06:37;;;;;;;5.22;2.55;;;;;;;4.33;100.00;103192.97;5073578;28;20041;-49
2024/01/31 07:09:06;;;;;;;7.82;2.72;;;;;;;4.33;100.00;103200.78;5073523;28;20041;-46
2024/01/31 07:11:35;;;;;;;5.47;2.38;;;;;;;4.32;100.00;103212.06;5073401;28;20128;-45
2024/01/31 07:14:03;;;;;;;7.25;2.72;;;;;;;4.32;100.00;103225.09;5072870;28;20051;-45
2024/01/31 07:16:31;;;;;;;5.30;2.42;;;;;;;4.34;100.00;103225.97;5072705;28;20044;-45
2024/01/31 07:19:00;;;;;;;7.40;2.90;;;;;;;4.34;100.00;103228.56;5072741;28;20045;-44
2024/01/31 07:21:28;;;;;;;7.47;2.80;;;;;;;4.36;100.00;103232.03;5072633;28;20395;-45
2024/01/31 07:23:56;;;;;;;7.75;2.95;;;;;;;4.36;100.00;103224.22;5071552;28;20526;-45
2024/01/31 07:26:33;;;;;;;6.50;2.78;;;;;;;4.36;100.00;103234.63;5071480;28;20036;-45
2024/01/31 07:29:02;;;;;;;8.40;3.05;;;;;;;4.36;100.00;103245.06;5071739;28;20126;-46
2024/01/31 07:31:30;;;;;;;7.68;3.65;;;;;;;4.37;100.00;103242.44;5069750;28;20102;-45
2024/01/31 07:33:59;;;;;;;7.57;2.95;;;;;;;4.37;100.00;103260.69;5071932;28;20543;-46
2024/01/31 07:36:27;;;;;;;9.10;3.47;;;;;;;4.36;100.00;103251.16;5071405;28;20097;-52
2024/01/31 07:38:55;;;;;;;7.65;3.63;;;;;;;4.37;100.00;103260.69;5070776;28;20048;-45
2024/01/31 07:41:23;;;;;;;9.10;3.20;;;;;;;4.38;100.00;103258.97;5071415;28;20442;-50
2024/01/31 07:43:52;;;;;;;8.52;3.65;;;;;;;4.38;100.00;103261.56;5067338;28;20041;-54
2024/01/31 07:46:21;;;;;;;8.57;3.63;;;;;;;4.36;100.00;103258.09;5066558;28;20039;-54
2024/01/31 07:48:49;;;;;;;8.00;3.75;;;;;;;4.38;100.00;103266.78;5067598;28;20516;-55
2024/01/31 07:51:18;;;;;;;8.65;3.63;;;;;;;4.42;100.00;103268.53;5070306;28;20052;-53
2024/01/31 07:53:46;;;;;;;8.10;3.33;;;;;;;4.42;100.00;103273.72;5071324;28;20052;-54
2024/01/31 07:56:14;;;;;;;7.57;3.58;;;;;;;4.44;100.00;103271.13;5070949;28;20044;-54
2024/01/31 07:58:42;;;;;;;8.55;4.00;;;;;;;4.45;100.00;103262.44;5068475;28;20040;-54
2024/01/31 08:01:11;;;;;;;6.22;3.22;;;;;;;4.45;100.00;103265.03;5066322;28;20056;-54
2024/01/31 08:03:45;;;;;;;8.07;3.60;;;;;;;4.48;100.00;103265.88;5068610;28;20045;-51
2024/01/31 08:06:13;;;;;;;10.48;3.88;;;;;;;4.48;100.00;103263.28;5067464;28;20036;-54
2024/01/31 08:08:45;;;;;;;8.65;3.80;;;;;;;4.49;100.00;103278.06;5071147;28;20139;-54
2024/01/31 08:11:13;;;;;;;8.57;3.70;;;;;;;4.49;100.00;103265.03;5070062;28;20048;-54
2024/01/31 08:13:41;;;;;;;7.30;3.45;;;;;;;4.51;100.00;103262.41;5067814;28;20040;-52
2024/01/31 08:16:12;;;;;;;7.50;3.58;;;;;;;4.51;100.00;103255.50;5066521;28;20193;-54
2024/01/31 08:18:40;;;;;;;9.60;4.38;;;;;;;4.49;100.00;103252.00;5068356;28;20059;-55
2024/01/31 08:21:10;;;;;;;8.18;3.80;;;;;;;4.52;100.00;103244.16;5068295;28;20044;-54
2024/01/31 08:23:38;;;;;;;9.55;4.13;;;;;;;4.53;100.00;103240.69;5068711;28;20127;-54
2024/01/31 08:26:07;;;;;;;8.82;4.03;;;;;;;4.55;100.00;103241.59;5067109;28;20044;-54
2024/01/31 08:28:35;;;;;;;8.18;4.03;;;;;;;4.56;100.00;103248.50;5069611;28;20037;-54
2024/01/31 08:31:03;;;;;;;8.02;3.92;;;;;;;4.59;100.00;103244.16;5070622;28;20124;-54
2024/01/31 08:33:32;;;;;;;9.40;3.85;;;;;;;4.57;100.00;103242.44;5068751;28;20361;-55
2024/01/31 08:36:00;;;;;;;7.75;4.10;;;;;;;4.59;100.00;103242.41;5067654;28;20068;-54
2024/01/31 08:38:32;;;;;;;11.85;5.00;;;;;;;4.60;100.00;103238.09;5068182;28;20402;-54
2024/01/31 08:41:02;;;;;;;8.13;4.40;;;;;;;4.61;100.00;103240.69;5064977;28;20484;-54
2024/01/31 08:43:30;;;;;;;10.00;4.35;;;;;;;4.64;100.00;103242.44;5068901;28;20119;-55
2024/01/31 08:45:58;;;;;;;10.10;5.03;;;;;;;4.65;100.00;103236.31;5066123;28;20479;-55
2024/01/31 08:48:31;;;;;;;8.18;4.45;;;;;;;4.66;100.00;103232.84;5068630;28;20422;-54
2024/01/31 08:50:59;;;;;;;8.15;4.57;;;;;;;4.62;100.00;103223.31;5073219;28;20041;-54
2024/01/31 08:53:27;;;;;;;9.70;4.53;;;;;;;4.64;100.00;103225.03;5074762;28;20068;-55
2024/01/31 08:55:57;;;;;;;9.00;4.57;;;;;;;4.65;100.00;103221.56;5075504;28;20049;-54
2024/01/31 08:58:36;;;;;;;12.45;4.75;;;;;;;4.69;100.00;103214.59;5074903;28;20052;-54
2024/01/31 09:01:05;;;;;;;9.25;5.15;;;;;;;4.70;100.00;103204.19;5070851;28;20059;-54
2024/01/31 09:03:34;;;;;;;10.13;5.03;;;;;;;4.73;100.00;103208.50;5073801;28;20388;-54
2024/01/31 09:06:02;;;;;;;10.18;5.50;;;;;;;4.75;100.00;103198.94;5075996;28;20484;-55
2024/01/31 09:08:30;;;;;;;12.77;5.15;;;;;;;4.76;100.00;103200.69;5075215;28;20044;-54
2024/01/31 09:10:59;;;;;;;11.68;4.70;;;;;;;4.86;100.00;103204.97;5074369;28;20036;-45
2024/01/31 09:13:28;;;;;;;11.57;4.82;;;;;;;4.84;100.00;103195.44;5075470;28;20037;-45
2024/01/31 09:15:56;;;;;;;13.63;5.90;;;;;;;4.89;100.00;103199.78;5075122;28;20446;-46
2024/01/31 09:18:24;;;;;;;10.82;4.88;;;;;;;4.88;100.00;103192.81;5074082;28;20036;-46
2024/01/31 09:20:52;;;;;;;9.95;5.32;;;;;;;4.90;100.00;103188.44;5074256;28;20428;-48
2024/01/31 09:23:20;;;;;;;10.02;5.07;;;;;;;4.93;100.00;103178.91;5070651;28;20495;-49
2024/01/31 09:25:51;;;;;;;9.48;5.60;;;;;;;4.97;100.00;103183.22;5070981;28;20476;-50
2024/01/31 09:28:21;;;;;;;11.30;5.50;;;;;;;4.97;100.00;103170.19;5071597;28;20170;-51
2024/01/31 09:30:51;;;;;;;;;;;;;;;4.96;100.00;103177.13;5072866;28;20055;-46
2024/01/31 09:33:19;;;;;;;8.98;5.30;;;;;;;5.03;100.00;103177.97;5074413;28;20019;-47
2024/01/31 09:35:47;;;;;;;12.65;6.28;;;;;;;5.06;100.00;103175.38;5074548;28;20507;-46
2024/01/31 09:38:16;;;;;;;14.15;5.57;;;;;;;5.09;100.00;103180.56;5074754;28;20054;-45
2024/01/31 09:40:44;;;;;;;13.15;5.35;;;;;;;5.11;100.00;103178.78;5073190;28;20178;-45
2024/01/31 09:43:15;;;;;;;9.95;5.32;;;;;;;5.16;100.00;103184.00;5075106;28;20098;-45
2024/01/31 09:45:45;;;;;;;9.93;5.50;;;;;;;5.20;100.00;103185.72;5074931;28;20136;-47
2024/01/31 09:48:14;;;;;;;9.88;4.93;;;;;;;5.23;100.00;103172.66;5074437;28;20052;-45
2024/01/31 09:50:43;;;;;;;12.05;5.93;;;;;;;5.29;100.00;103156.09;5074754;28;20040;-45
2024/01/31 09:53:12;;;;;;;9.48;5.80;;;;;;;5.38;100.00;103156.91;5074760;28;20102;-45
2024/01/31 09:55:42;;;;;;;10.35;5.70;;;;;;;5.42;100.00;103158.59;5074635;28;20052;-55
2024/01/31 09:58:10;;;;;;;13.70;6.05;;;;;;;5.44;100.00;103169.06;5074815;28;20439;-54
2024/01/31 10:00:38;;;;;;;13.55;6.85;;;;;;;5.48;100.00;103168.16;5074115;28;20051;-54
2024/01/31 10:03:09;;;;;;;10.23;5.88;;;;;;;5.58;100.00;103168.97;5073747;28;20071;-54
2024/01/31 10:05:38;;;;;;;15.45;6.63;;;;;;;5.63;100.00;103171.53;5071550;28;20056;-54
2024/01/31 10:08:06;;;;;;;14.38;7.18;;;;;;;5.63;100.00;103166.31;5071262;28;20126;-54
2024/01/31 10:10:34;;;;;;;13.20;6.38;;;;;;;5.65;100.00;103167.19;5071288;28;20118;-54
2024/01/31 10:13:04;;;;;;;14.00;6.93;;;;;;;5.69;100.00;103167.13;5071346;28;20057;-54
2024/01/31 10:15:32;;;;;;;13.88;7.50;;;;;;;5.72;100.00;103174.09;5073107;28;20040;-54
2024/01/31 10:18:00;;;;;;;13.35;7.65;;;;;;;5.75;100.00;103171.44;5071082;28;20051;-54
2024/01/31 10:20:30;;;;;;;15.48;7.68;;;;;;;5.77;100.00;103182.75;5072142;28;20080;-54
2024/01/31 10:22:59;;;;;;;18.67;7.75;;;;;;;5.79;100.00;103182.75;5074096;28;20131;-53
2024/01/31 10:25:28;;;;;;;16.15;8.32;;;;;;;5.79;100.00;103173.16;5074293;28;20049;-54
2024/01/31 10:27:56;;;;;;;17.70;8.90;;;;;;;5.83;100.00;103174.00;5074167;28;20102;-52
2024/01/31 10:30:24;;;;;;;18.33;9.15;;;;;;;5.87;100.00;103179.19;5073995;28;20098;-53
2024/01/31 10:32:55;;;;;;;17.95;9.23;;;;;;;5.89;100.00;103166.09;5073982;28;20067;-53
2024/01/31 10:35:24;;;;;;;21.33;9.48;;;;;;;5.90;100.00;103173.94;5074252;28;20124;-54
2024/01/31 10:38:15;;;;;;;18.33;9.30;;;;;;;5.92;100.00;103174.78;5073794;28;20102;-55
2024/01/31 10:40:43;;;;;;;20.42;10.32;;;;;;;5.95;100.00;103162.59;5073428;28;20049;-54
2024/01/31 10:43:14;;;;;;;23.02;10.20;;;;;;;5.96;100.00;103172.16;5070514;28;20588;-54
2024/01/31 10:45:42;;;;;;;20.90;10.07;;;;;;;5.94;100.00;103166.94;5070994;28;20055;-55
2024/01/31 10:48:11;;;;;;;26.00;11.27;;;;;;;5.88;100.00;103162.63;5073143;28;20051;-54
2024/01/31 10:50:41;;;;;;;17.27;9.60;;;;;;;5.92;100.00;103158.25;5070872;28;20420;-55
2024/01/31 10:53:10;;;;;;;21.70;10.55;;;;;;;5.93;100.00;103159.97;5070482;28;20582;-55
2024/01/31 10:55:42;;;;;;;20.10;9.88;;;;;;;6.00;100.00;103155.59;5073735;28;20122;-54
2024/01/31 10:58:11;;;;;;;19.43;11.50;;;;;;;6.02;100.00;103159.06;5073506;28;20415;-54
2024/01/31 11:00:46;;;;;;;16.70;9.90;;;;;;;6.02;100.00;103151.22;5073709;28;20044;-54
2024/01/31 11:03:17;;;;;;;24.63;10.63;;;;;;;6.05;100.00;103148.59;5069348;28;20076;-52
2024/01/31 11:05:49;;;;;;;23.48;12.20;;;;;;;6.06;100.00;103132.03;5070329;28;20048;-55
2024/01/31 11:08:19;;;;;;;24.40;13.73;;;;;;;6.06;100.00;103135.50;5070522;28;20095;-54
2024/01/31 11:10:49;;;;;;;27.95;13.57;;;;;;;6.06;100.00;103116.38;5069341;28;20107;-55
2024/01/31 11:13:18;;;;;;;30.38;14.65;;;;;;;6.11;100.00;103118.91;5069520;28;20044;-55
2024/01/31 11:15:46;;;;;;;27.40;14.73;;;;;;;6.14;100.00;103111.06;5072072;28;20048;-53
2024/01/31 11:18:15;;;;;;;27.40;13.50;;;;;;;6.16;100.00;103098.84;5073209;28;20762;-53
2024/01/31 11:20:47;;;;;;;31.17;14.55;;;;;;;6.13;100.00;103094.50;5072154;28;20044;-54
2024/01/31 11:23:17;;;;;;;28.77;13.63;;;;;;;6.17;100.00;103093.59;5068322;28;20166;-52
2024/01/31 11:25:46;;;;;;;32.13;13.55;;;;;;;6.17;100.00;103085.75;5069762;28;20530;-54
2024/01/31 11:28:17;;;;;;;24.40;13.35;;;;;;;6.19;100.00;103083.13;5069761;28;20131;-54
2024/01/31 11:30:50;;;;;;;28.23;13.85;;;;;;;6.24;100.00;103082.22;5068455;28;20053;-52